Time;durP1;ratioP1;P1;durP2;ratioP2;P2;SDS_P1;SDS_P2;PMS_P1;PMS_P2;Temp;Humidity;BMP_temperature;BMP_pressure;BME280_temperature;BME280_humidity;BME280_pressure;Samples;Min_cycle;Max_cycle;Signal;HPM_P1;HPM_P2
2023/01/23 00:02:22;;;;;;;15.73;13.83;;;2.80;57.20;;;;;;20754;6825;117268;-77
2023/01/23 00:04:48;;;;;;;14.80;13.27;;;2.60;57.50;;;;;;20734;6825;118341;-74
2023/01/23 00:07:14;;;;;;;21.05;19.15;;;2.50;57.90;;;;;;20554;6825;308400;-74
2023/01/23 00:09:40;;;;;;;15.25;13.77;;;2.70;57.60;;;;;;20768;6825;117996;-75
2023/01/23 00:12:06;;;;;;;20.33;18.43;;;2.70;57.60;;;;;;20553;6825;279151;-74
2023/01/23 00:14:31;;;;;;;21.63;19.63;;;2.90;57.70;;;;;;20564;6825;308610;-75
2023/01/23 00:16:57;;;;;;;21.07;19.07;;;3.10;56.90;;;;;;20544;6825;308010;-74
2023/01/23 00:19:22;;;;;;;16.67;15.07;;;3.40;56.20;;;;;;20765;6825;119299;-75
2023/01/23 00:21:48;;;;;;;20.17;18.37;;;3.30;55.90;;;;;;20552;6825;283034;-76
2023/01/23 00:24:13;;;;;;;16.80;14.97;;;3.30;56.10;;;;;;20768;6825;117814;-74
2023/01/23 00:26:39;;;;;;;15.77;14.07;;;3.20;55.90;;;;;;20742;6825;118214;-74
2023/01/23 00:29:05;;;;;;;20.53;18.53;;;2.90;56.30;;;;;;20544;6825;309116;-74
2023/01/23 00:31:30;;;;;;;15.50;14.00;;;3.00;56.60;;;;;;20773;6825;117824;-74
2023/01/23 00:33:56;;;;;;;20.63;18.73;;;3.00;56.60;;;;;;20550;6825;341641;-73
2023/01/23 00:36:22;;;;;;;20.93;18.97;;;3.00;56.60;;;;;;20552;6825;337507;-74
2023/01/23 00:38:48;;;;;;;16.67;15.03;;;3.20;56.50;;;;;;20750;6825;122214;-74
2023/01/23 00:41:14;;;;;;;20.70;18.70;;;3.20;55.90;;;;;;20470;6825;280597;-76
2023/01/23 00:43:39;;;;;;;21.10;19.10;;;3.20;56.20;;;;;;20550;6825;336815;-74
2023/01/23 00:46:05;;;;;;;21.10;19.17;;;3.40;55.80;;;;;;20521;6825;282966;-74
2023/01/23 00:48:31;;;;;;;15.43;13.93;;;3.50;55.10;;;;;;20740;6825;117910;-74
2023/01/23 00:50:57;;;;;;;15.30;13.80;;;3.40;55.10;;;;;;20755;6825;121008;-74
2023/01/23 00:53:23;;;;;;;15.17;13.67;;;2.90;56.30;;;;;;20773;6825;117343;-74
2023/01/23 00:55:49;;;;;;;20.53;18.63;;;2.90;56.30;;;;;;20567;6825;279183;-75
2023/01/23 00:58:14;;;;;;;15.87;14.27;;;2.90;56.60;;;;;;20783;6825;117141;-76
2023/01/23 01:00:40;;;;;;;19.97;18.17;;;2.90;56.50;;;;;;20557;6825;337283;-75
2023/01/23 01:03:05;;;;;;;16.77;15.03;;;3.00;56.90;;;;;;20787;6823;120316;-74
2023/01/23 01:05:31;;;;;;;15.60;13.70;;;3.00;56.60;;;;;;20786;6825;117864;-75
2023/01/23 01:07:56;;;;;;;21.50;19.45;;;2.80;56.90;;;;;;20570;6825;308021;-75
2023/01/23 01:10:22;;;;;;;21.43;19.47;;;2.90;57.30;;;;;;20564;6825;298059;-74
2023/01/23 01:12:48;;;;;;;20.42;18.52;;;3.40;55.90;;;;;;20547;6825;307257;-74
2023/01/23 01:15:14;;;;;;;20.35;18.55;;;3.40;56.00;;;;;;20565;6825;337614;-75
2023/01/23 01:17:39;;;;;;;19.90;18.10;;;3.60;55.30;;;;;;20559;6825;306988;-75
2023/01/23 01:20:05;;;;;;;19.75;18.05;;;3.80;54.90;;;;;;20571;6825;279374;-75
2023/01/23 01:22:31;;;;;;;19.67;17.97;;;3.90;54.40;;;;;;20562;6825;293174;-75
2023/01/23 01:24:56;;;;;;;19.77;18.08;;;3.90;54.10;;;;;;20547;6825;337167;-75
2023/01/23 01:27:22;;;;;;;19.65;17.95;;;4.00;53.90;;;;;;20556;6825;278091;-76
2023/01/23 01:29:47;;;;;;;15.97;14.47;;;4.00;53.70;;;;;;20756;6825;117921;-75
2023/01/23 01:32:13;;;;;;;15.40;13.93;;;3.80;53.80;;;;;;20783;6825;117517;-76
2023/01/23 01:34:39;;;;;;;18.77;16.97;;;3.40;54.50;;;;;;20564;6825;284203;-77
2023/01/23 01:37:05;;;;;;;20.87;18.97;;;3.60;54.90;;;;;;20435;6825;278573;-75
2023/01/23 01:39:30;;;;;;;19.90;18.10;;;3.60;54.90;;;;;;20562;6825;312208;-76
2023/01/23 01:41:56;;;;;;;19.60;17.90;;;3.70;55.00;;;;;;20559;6825;305508;-74
2023/01/23 01:44:22;;;;;;;19.90;18.10;;;3.80;54.00;;;;;;20559;6825;312906;-74
2023/01/23 01:46:48;;;;;;;19.80;18.10;;;3.90;53.70;;;;;;20539;6825;300332;-74
2023/01/23 01:49:13;;;;;;;18.63;17.03;;;4.00;53.60;;;;;;20560;6825;312057;-76
2023/01/23 01:51:53;;;;;;;15.20;13.80;;;4.00;53.60;;;;;;20689;6825;117543;-74
2023/01/23 01:54:38;;;;;;;14.23;12.73;;;3.80;53.80;;;;;;20774;6825;117923;-74
2023/01/23 01:57:03;;;;;;;14.07;12.57;;;3.40;54.40;;;;;;20731;6825;120047;-74
2023/01/23 01:59:30;;;;;;;15.50;13.13;;;2.80;56.40;;;;;;20756;6825;121435;-74
2023/01/23 02:02:04;;;;;;;18.80;17.20;;;2.80;55.80;;;;;;20554;6825;312196;-74
2023/01/23 02:04:30;;;;;;;19.73;18.03;;;3.20;55.90;;;;;;20550;6825;278820;-75
2023/01/23 02:06:55;;;;;;;20.13;18.33;;;3.10;55.80;;;;;;20544;6825;312383;-75
2023/01/23 02:09:21;;;;;;;20.30;18.47;;;3.40;55.20;;;;;;20558;6825;295537;-75
2023/01/23 02:11:48;;;;;;;20.23;18.42;;;3.60;54.80;;;;;;20541;6825;337173;-75
2023/01/23 02:14:13;;;;;;;20.08;18.17;;;3.70;54.30;;;;;;20556;6823;313034;-76
2023/01/23 02:16:41;;;;;;;16.40;14.77;;;3.80;54.10;;;;;;20758;6824;117851;-76
2023/01/23 02:19:06;;;;;;;14.68;13.15;;;3.60;54.10;;;;;;20579;6825;117372;-76
2023/01/23 02:21:31;;;;;;;14.23;12.83;;;3.30;54.70;;;;;;20742;6825;117944;-75
2023/01/23 02:24:06;;;;;;;14.40;12.90;;;2.80;55.90;;;;;;20775;6825;118055;-75
2023/01/23 02:26:31;;;;;;;14.43;12.47;;;2.70;55.80;;;;;;20748;6825;117971;-75
2023/01/23 02:28:56;;;;;;;19.65;17.80;;;2.60;56.40;;;;;;20543;6825;279673;-76
2023/01/23 02:31:21;;;;;;;16.00;14.30;;;2.60;56.80;;;;;;20775;6825;124385;-76
2023/01/23 02:33:50;;;;;;;14.80;13.30;;;2.70;56.50;;;;;;20772;6825;121344;-76
2023/01/23 02:36:15;;;;;;;14.00;12.53;;;2.50;56.60;;;;;;20760;6825;118723;-76
2023/01/23 02:38:54;;;;;;;13.98;12.57;;;2.40;56.90;;;;;;20754;6825;118015;-76
2023/01/23 02:41:20;;;;;;;19.93;17.93;;;2.20;57.20;;;;;;20536;6825;309476;-76
2023/01/23 02:43:45;;;;;;;16.15;14.35;;;2.40;57.60;;;;;;20731;6825;117410;-77
2023/01/23 02:46:11;;;;;;;20.80;18.83;;;2.50;57.20;;;;;;20509;6840;282867;-75
2023/01/23 02:48:36;;;;;;;20.48;18.48;;;2.60;57.20;;;;;;20561;6825;306955;-76
2023/01/23 02:51:02;;;;;;;19.90;18.00;;;3.00;56.70;;;;;;20500;6840;307714;-76
2023/01/23 02:53:29;;;;;;;20.08;18.27;;;3.20;55.90;;;;;;20566;6825;317829;-76
2023/01/23 02:55:53;;;;;;;15.93;14.33;;;3.50;55.30;;;;;;20715;6843;118466;-76
2023/01/23 03:01:04;;;;;;;15.53;13.93;;;3.30;55.20;;;;;;20782;6825;117761;-76
2023/01/23 03:03:30;;;;;;;14.57;13.07;;;3.10;55.20;;;;;;20781;6825;118179;-76
2023/01/23 03:05:56;;;;;;;19.58;17.77;;;2.90;56.30;;;;;;20507;6840;278392;-76
2023/01/23 03:08:21;;;;;;;20.23;18.33;;;2.90;55.90;;;;;;20549;6825;336897;-75
2023/01/23 03:10:46;;;;;;;16.83;15.10;;;3.10;55.60;;;;;;20695;6840;118146;-76
2023/01/23 03:13:12;;;;;;;19.67;17.87;;;3.10;55.40;;;;;;20561;6825;335775;-75
2023/01/23 03:15:40;;;;;;;16.12;14.43;;;3.00;55.30;;;;;;20714;6843;118439;-75
2023/01/23 03:18:05;;;;;;;14.83;13.23;;;3.00;55.30;;;;;;20768;6825;122072;-75
2023/01/23 03:20:39;;;;;;;19.67;17.77;;;2.80;55.80;;;;;;20568;6825;323563;-77
2023/01/23 03:23:05;;;;;;;20.25;18.27;;;3.10;55.70;;;;;;20559;6825;310540;-76
2023/01/23 03:25:31;;;;;;;16.00;14.37;;;3.00;55.60;;;;;;20775;6823;117652;-75
2023/01/23 03:27:56;;;;;;;14.93;13.35;;;3.00;55.40;;;;;;20773;6824;119623;-76
2023/01/23 03:30:24;;;;;;;14.37;12.93;;;2.70;55.70;;;;;;20772;6825;117620;-75
2023/01/23 03:32:48;;;;;;;14.30;12.80;;;2.30;56.30;;;;;;20752;6825;119670;-75
2023/01/23 03:35:15;;;;;;;19.67;17.80;;;2.30;56.60;;;;;;20534;6825;308305;-76
2023/01/23 03:37:39;;;;;;;17.40;15.48;;;2.50;57.10;;;;;;20750;6825;117543;-75
2023/01/23 03:42:51;;;;;;;20.23;18.23;;;2.40;57.00;;;;;;20524;6825;307204;-76
2023/01/23 03:45:17;;;;;;;15.23;13.63;;;2.60;56.80;;;;;;20730;6825;118315;-77
2023/01/23 03:47:43;;;;;;;15.00;13.13;;;2.60;56.90;;;;;;20734;6825;117176;-77
2023/01/23 03:50:09;;;;;;;14.20;12.70;;;2.30;57.30;;;;;;20743;6825;117510;-77
2023/01/23 03:52:36;;;;;;;19.37;17.50;;;2.30;57.30;;;;;;20519;6825;314815;-77
2023/01/23 03:55:00;;;;;;;20.33;18.43;;;2.50;57.70;;;;;;20519;6825;278575;-76
2023/01/23 03:57:26;;;;;;;20.33;18.43;;;2.80;56.90;;;;;;20543;6825;312408;-76
2023/01/23 03:59:51;;;;;;;20.10;18.20;;;3.10;56.20;;;;;;20563;6825;297622;-76
2023/01/23 04:02:17;;;;;;;20.37;18.47;;;3.30;55.50;;;;;;20561;6825;307577;-77
2023/01/23 04:04:43;;;;;;;18.90;17.20;;;3.50;55.00;;;;;;20542;6825;294790;-76
2023/01/23 04:07:09;;;;;;;19.23;17.40;;;3.70;54.00;;;;;;20561;6825;312084;-76
2023/01/23 04:09:34;;;;;;;15.57;14.07;;;3.70;53.90;;;;;;20776;6825;118432;-76
2023/01/23 04:12:00;;;;;;;18.83;17.12;;;3.50;54.00;;;;;;20555;6825;295618;-75
2023/01/23 04:14:26;;;;;;;15.57;13.97;;;3.50;54.60;;;;;;20778;6825;117250;-77
2023/01/23 04:16:52;;;;;;;19.55;17.62;;;3.30;54.70;;;;;;20537;6825;307581;-76
2023/01/23 04:19:20;;;;;;;15.23;13.63;;;3.30;54.90;;;;;;20765;6825;117672;-74
2023/01/23 04:21:45;;;;;;;19.73;17.93;;;3.20;54.90;;;;;;20560;6825;338420;-75
2023/01/23 04:24:11;;;;;;;15.87;14.17;;;3.20;55.10;;;;;;20776;6825;117798;-76
2023/01/23 04:26:38;;;;;;;14.48;12.98;;;3.10;55.00;;;;;;20775;6825;118214;-76
2023/01/23 04:29:04;;;;;;;20.13;18.13;;;2.80;55.40;;;;;;20543;6825;303241;-75
2023/01/23 04:31:30;;;;;;;15.93;14.32;;;2.90;55.80;;;;;;20776;6825;117621;-75
2023/01/23 04:33:57;;;;;;;20.10;18.17;;;2.80;55.70;;;;;;20566;6825;278679;-75
2023/01/23 04:36:22;;;;;;;15.63;14.03;;;2.90;55.90;;;;;;20763;6823;117222;-76
2023/01/23 04:38:48;;;;;;;15.30;13.70;;;2.90;55.80;;;;;;20750;6824;118118;-75
2023/01/23 04:41:16;;;;;;;17.37;13.50;;;2.70;56.00;;;;;;20750;6825;117684;-78
2023/01/23 04:43:43;;;;;;;19.70;17.60;;;2.60;56.70;;;;;;20546;6825;307610;-75
2023/01/23 04:46:08;;;;;;;21.17;19.08;;;2.60;56.70;;;;;;20548;6825;337695;-75
2023/01/23 04:48:35;;;;;;;17.23;15.33;;;2.90;56.30;;;;;;20765;6825;117047;-74
2023/01/23 04:51:01;;;;;;;20.40;18.40;;;2.90;56.10;;;;;;20526;6825;278509;-77
2023/01/23 04:53:27;;;;;;;27.20;22.90;;;2.90;56.10;;;;;;20551;6825;331390;-77
2023/01/23 04:55:54;;;;;;;17.12;15.43;;;3.10;55.70;;;;;;20756;6825;117556;-75
2023/01/23 04:58:19;;;;;;;16.83;13.57;;;3.10;55.50;;;;;;20762;6825;117204;-73
2023/01/23 05:00:45;;;;;;;15.47;13.13;;;2.60;56.40;;;;;;20730;6825;120905;-75
2023/01/23 05:03:11;;;;;;;15.67;12.80;;;2.60;56.40;;;;;;20773;6825;118158;-76
2023/01/23 05:05:37;;;;;;;21.17;18.98;;;2.40;56.80;;;;;;20548;6825;307686;-74
2023/01/23 05:08:02;;;;;;;17.37;14.63;;;2.50;57.40;;;;;;20663;6825;117213;-76
2023/01/23 05:10:28;;;;;;;19.75;17.75;;;2.50;57.00;;;;;;20543;6825;318676;-75
2023/01/23 05:12:53;;;;;;;21.12;19.12;;;2.70;57.40;;;;;;20529;6825;280370;-76
2023/01/23 05:15:20;;;;;;;16.73;14.93;;;3.00;56.70;;;;;;20766;6825;117852;-75
2023/01/23 05:17:44;;;;;;;20.92;18.73;;;3.00;56.40;;;;;;20553;6825;286824;-77
2023/01/23 05:20:10;;;;;;;18.40;15.33;;;3.00;56.70;;;;;;20771;6825;117376;-78
2023/01/23 05:22:37;;;;;;;16.27;14.57;;;2.80;57.00;;;;;;20759;6825;117799;-74
2023/01/23 05:25:03;;;;;;;21.23;19.10;;;2.90;57.20;;;;;;20531;6825;337568;-78
2023/01/23 05:27:29;;;;;;;16.80;14.53;;;2.90;57.20;;;;;;20762;6825;118026;-73
2023/01/23 05:29:54;;;;;;;21.98;19.75;;;2.90;57.40;;;;;;20552;6825;302439;-75
2023/01/23 05:32:20;;;;;;;21.37;19.37;;;3.30;56.40;;;;;;20537;6825;307676;-74
2023/01/23 05:34:46;;;;;;;21.30;19.30;;;3.20;56.30;;;;;;20532;6825;321677;-74
2023/01/23 05:37:11;;;;;;;17.63;15.73;;;3.50;55.50;;;;;;20757;6825;117841;-76
2023/01/23 05:39:37;;;;;;;20.08;18.17;;;3.40;55.40;;;;;;20543;6825;320841;-73
2023/01/23 05:42:03;;;;;;;17.05;15.20;;;3.40;55.40;;;;;;20764;6825;117542;-77
2023/01/23 05:44:29;;;;;;;15.53;13.83;;;3.30;55.20;;;;;;20761;6825;117953;-76
2023/01/23 05:46:57;;;;;;;21.20;19.17;;;3.00;55.70;;;;;;20530;6825;285428;-78
2023/01/23 05:49:23;;;;;;;21.37;19.27;;;3.00;56.10;;;;;;20546;6823;309420;-78
2023/01/23 05:51:49;;;;;;;16.90;15.17;;;3.30;55.90;;;;;;20766;6825;122886;-77
2023/01/23 05:54:14;;;;;;;20.45;18.37;;;3.30;55.60;;;;;;20549;6825;337018;-76
2023/01/23 05:56:40;;;;;;;15.80;14.15;;;3.30;55.40;;;;;;20751;6825;118623;-79
2023/01/23 05:59:05;;;;;;;20.85;18.60;;;3.20;55.20;;;;;;20555;6825;336823;-78
2023/01/23 06:01:31;;;;;;;16.80;14.87;;;3.20;55.30;;;;;;20746;6825;117534;-79
2023/01/23 06:03:56;;;;;;;18.50;15.13;;;3.10;55.40;;;;;;20756;6825;118357;-79
2023/01/23 06:06:22;;;;;;;20.10;18.00;;;2.80;55.90;;;;;;20539;6825;325608;-77
2023/01/23 06:08:47;;;;;;;20.97;18.77;;;2.90;56.20;;;;;;20514;6825;286552;-76
2023/01/23 06:11:14;;;;;;;21.75;19.58;;;3.40;55.60;;;;;;20520;6825;312595;-73
2023/01/23 06:13:39;;;;;;;17.60;15.27;;;3.40;55.40;;;;;;20755;6825;117553;-75
2023/01/23 06:16:05;;;;;;;20.50;18.45;;;3.30;55.20;;;;;;20547;6825;307943;-74
2023/01/23 06:18:31;;;;;;;21.27;19.07;;;3.30;55.30;;;;;;20516;6825;286876;-76
2023/01/23 06:20:59;;;;;;;16.55;14.77;;;3.50;55.00;;;;;;20736;6825;127364;-75
2023/01/23 06:23:26;;;;;;;20.88;18.75;;;3.30;54.80;;;;;;20549;6825;320584;-75
2023/01/23 06:25:53;;;;;;;20.60;18.50;;;3.30;55.10;;;;;;20515;6825;311188;-76
2023/01/23 06:28:19;;;;;;;19.70;17.77;;;3.50;54.80;;;;;;20531;6825;278283;-77
2023/01/23 06:30:46;;;;;;;21.00;19.00;;;3.60;54.40;;;;;;20538;6825;281826;-79
2023/01/23 06:33:11;;;;;;;17.90;15.13;;;3.80;54.10;;;;;;20762;6825;117723;-74
2023/01/23 06:35:37;;;;;;;19.98;17.98;;;3.60;54.10;;;;;;20546;6825;299420;-73
2023/01/23 06:38:03;;;;;;;21.03;18.93;;;3.60;54.40;;;;;;20544;6825;312367;-75
2023/01/23 06:40:29;;;;;;;21.00;18.90;;;3.60;54.40;;;;;;20541;6825;308431;-74
2023/01/23 06:42:55;;;;;;;20.05;18.02;;;3.70;54.00;;;;;;20437;6825;307737;-74
2023/01/23 06:45:20;;;;;;;20.63;18.40;;;3.80;53.80;;;;;;20498;6825;333841;-75
2023/01/23 06:47:45;;;;;;;19.60;15.15;;;3.80;53.60;;;;;;20745;6825;118397;-76
2023/01/23 06:50:11;;;;;;;20.27;18.25;;;3.60;53.70;;;;;;20512;6825;308019;-76
2023/01/23 06:52:38;;;;;;;21.03;19.03;;;3.50;54.30;;;;;;20528;6825;312742;-74
2023/01/23 06:55:05;;;;;;;21.33;19.23;;;3.60;54.30;;;;;;20526;6825;278127;-75
2023/01/23 06:57:30;;;;;;;21.48;19.17;;;3.70;54.00;;;;;;20548;6825;311601;-75
2023/01/23 06:59:58;;;;;;;16.63;14.60;;;3.60;53.90;;;;;;20750;6823;118702;-74
2023/01/23 07:02:23;;;;;;;17.20;13.60;;;3.60;53.90;;;;;;20754;6824;117547;-76
2023/01/23 07:04:48;;;;;;;21.07;18.87;;;3.20;54.40;;;;;;20516;6825;290610;-76
2023/01/23 07:07:15;;;;;;;18.33;15.10;;;3.20;55.00;;;;;;20765;6825;118593;-75
2023/01/23 07:09:40;;;;;;;16.40;13.97;;;3.10;55.00;;;;;;20762;6825;118420;-75
2023/01/23 07:12:06;;;;;;;21.85;19.25;;;2.80;55.40;;;;;;20540;6825;283166;-75
2023/01/23 07:14:32;;;;;;;18.90;15.60;;;2.80;56.10;;;;;;20768;6825;118033;-75
2023/01/23 07:16:58;;;;;;;21.48;19.17;;;2.80;55.80;;;;;;20520;6825;288356;-75
2023/01/23 07:19:25;;;;;;;21.37;19.08;;;3.10;56.30;;;;;;20536;6825;307456;-75
2023/01/23 07:21:50;;;;;;;21.67;19.47;;;3.10;55.70;;;;;;20527;6825;307981;-76
2023/01/23 07:24:16;;;;;;;17.60;15.35;;;3.20;55.00;;;;;;20758;6825;120652;-74
2023/01/23 07:26:42;;;;;;;20.43;18.30;;;3.20;55.00;;;;;;20528;6825;278099;-75
2023/01/23 07:29:10;;;;;;;21.05;18.85;;;3.30;55.00;;;;;;20540;6825;310566;-74
2023/01/23 07:31:35;;;;;;;22.42;20.02;;;3.30;55.00;;;;;;20541;6825;278895;-75
2023/01/23 07:34:02;;;;;;;18.80;15.55;;;3.50;54.70;;;;;;20754;6825;121495;-74
2023/01/23 07:36:28;;;;;;;20.85;18.42;;;3.30;54.70;;;;;;20531;6825;278573;-76
2023/01/23 07:38:57;;;;;;;16.73;14.87;;;3.20;55.00;;;;;;20727;6825;119267;-76
2023/01/23 07:41:22;;;;;;;25.25;20.23;;;3.00;55.00;;;;;;20547;6825;278199;-76
2023/01/23 07:43:48;;;;;;;22.02;19.33;;;3.00;55.30;;;;;;20566;6825;337264;-77
2023/01/23 07:46:13;;;;;;;21.35;19.10;;;3.20;55.00;;;;;;20558;6825;310388;-76
2023/01/23 07:48:39;;;;;;;21.02;18.83;;;3.30;54.50;;;;;;20547;6825;337666;-76
2023/01/23 07:51:05;;;;;;;19.55;17.65;;;3.50;54.20;;;;;;20531;6825;337103;-76
2023/01/23 07:53:31;;;;;;;16.67;14.87;;;3.30;54.00;;;;;;20765;6825;118254;-76
2023/01/23 07:55:58;;;;;;;20.52;17.87;;;3.40;54.10;;;;;;20513;6825;310555;-76
2023/01/23 07:58:23;;;;;;;20.92;18.73;;;3.30;54.40;;;;;;20548;6825;334832;-76
2023/01/23 08:00:49;;;;;;;17.87;14.73;;;3.40;54.20;;;;;;20739;6825;118730;-75
2023/01/23 08:03:14;;;;;;;18.07;13.70;;;3.20;54.20;;;;;;20770;6825;117672;-73
2023/01/23 08:05:40;;;;;;;15.43;12.53;;;3.00;54.80;;;;;;20774;6825;117645;-74
2023/01/23 08:08:06;;;;;;;17.73;15.90;;;2.70;55.30;;;;;;20550;6825;278517;-75
2023/01/23 08:10:31;;;;;;;14.20;12.70;;;2.70;55.50;;;;;;20773;6823;117592;-74
2023/01/23 08:12:57;;;;;;;13.70;12.23;;;2.70;55.50;;;;;;20742;6824;121154;-75
2023/01/23 08:15:22;;;;;;;14.27;11.97;;;2.60;55.70;;;;;;20764;6825;118504;-75
2023/01/23 08:17:50;;;;;;;17.63;15.83;;;2.60;56.00;;;;;;20561;6825;277656;-75
2023/01/23 08:20:16;;;;;;;14.37;12.87;;;2.60;56.00;;;;;;20754;6825;118973;-77
2023/01/23 08:22:41;;;;;;;17.17;15.47;;;2.60;55.70;;;;;;20515;6825;308154;-74
2023/01/23 08:25:08;;;;;;;14.10;12.70;;;2.80;55.40;;;;;;20741;6825;119287;-75
2023/01/23 08:27:34;;;;;;;14.43;12.50;;;2.80;55.20;;;;;;20751;6825;117369;-75
2023/01/23 08:30:00;;;;;;;14.57;11.10;;;2.70;55.30;;;;;;20761;6825;117519;-72
2023/01/23 08:32:25;;;;;;;15.45;12.23;;;2.50;55.60;;;;;;20748;6825;118927;-75
2023/01/23 08:34:53;;;;;;;14.03;11.53;;;2.30;56.20;;;;;;20744;6825;127326;-74
2023/01/23 08:37:17;;;;;;;17.40;15.60;;;2.30;56.20;;;;;;20538;6825;311837;-74
2023/01/23 08:39:42;;;;;;;18.10;16.40;;;2.50;56.00;;;;;;20547;6825;308098;-75
2023/01/23 08:42:08;;;;;;;14.40;12.90;;;2.90;55.90;;;;;;20744;6825;118050;-74
2023/01/23 08:44:34;;;;;;;17.90;16.10;;;2.90;54.70;;;;;;20548;6825;292106;-76
2023/01/23 08:47:07;;;;;;;19.33;17.33;;;3.10;54.80;;;;;;20537;6825;281506;-75
2023/01/23 08:49:33;;;;;;;19.73;17.83;;;3.30;54.20;;;;;;20532;6825;337564;-76
2023/01/23 08:51:58;;;;;;;19.10;17.20;;;3.60;53.60;;;;;;20525;6825;278509;-75
2023/01/23 08:54:24;;;;;;;20.63;18.57;;;3.80;53.20;;;;;;20530;6825;279284;-74
2023/01/23 08:56:51;;;;;;;19.50;15.07;;;4.00;52.80;;;;;;20718;6825;120467;-76
2023/01/23 08:59:16;;;;;;;19.70;17.70;;;3.90;52.80;;;;;;20534;6825;308411;-77
2023/01/23 09:01:42;;;;;;;15.50;13.90;;;3.80;53.00;;;;;;20758;6825;125176;-75
2023/01/23 09:04:07;;;;;;;22.93;18.03;;;3.60;53.10;;;;;;20761;6825;117919;-74
2023/01/23 09:06:34;;;;;;;17.60;12.60;;;3.40;53.60;;;;;;20750;6825;117530;-74
2023/01/23 09:08:59;;;;;;;19.65;17.65;;;3.10;54.10;;;;;;20530;6825;346255;-74
2023/01/23 09:11:25;;;;;;;16.30;14.50;;;3.20;54.30;;;;;;20746;6825;118206;-75
2023/01/23 09:13:51;;;;;;;20.10;18.10;;;3.20;54.50;;;;;;20542;6825;311205;-76
2023/01/23 09:16:18;;;;;;;15.75;13.62;;;3.40;54.60;;;;;;20740;6825;117514;-75
2023/01/23 09:18:43;;;;;;;19.63;17.63;;;3.40;54.50;;;;;;20520;6825;307876;-76
2023/01/23 09:21:10;;;;;;;19.90;17.90;;;3.50;54.40;;;;;;20530;6825;315873;-76
2023/01/23 09:23:36;;;;;;;15.90;13.40;;;3.80;53.80;;;;;;20750;6823;118282;-75
2023/01/23 09:26:02;;;;;;;20.17;18.07;;;3.80;53.40;;;;;;20516;6824;278718;-74
2023/01/23 09:28:28;;;;;;;20.05;17.95;;;4.00;53.00;;;;;;20502;6825;315208;-75
2023/01/23 09:30:55;;;;;;;16.13;14.47;;;4.00;53.00;;;;;;20727;6825;127113;-75
2023/01/23 09:33:25;;;;;;;16.90;14.03;;;3.90;52.90;;;;;;20753;6825;118850;-75
2023/01/23 09:35:47;;;;;;;17.03;12.87;;;3.40;53.80;;;;;;20747;6825;118562;-76
2023/01/23 09:38:13;;;;;;;19.53;17.53;;;3.40;53.80;;;;;;20531;6825;279112;-76
2023/01/23 09:40:45;;;;;;;24.65;22.33;;;3.40;54.00;;;;;;20537;6825;310406;-75
2023/01/23 09:43:10;;;;;;;16.80;15.10;;;3.70;53.80;;;;;;20736;6825;117386;-76
2023/01/23 09:45:36;;;;;;;23.63;17.70;;;3.70;53.60;;;;;;20747;6825;119391;-75
2023/01/23 09:48:21;;;;;;;22.10;19.85;;;3.50;53.90;;;;;;20540;6825;311084;-74
2023/01/23 09:50:58;;;;;;;19.23;17.33;;;3.90;53.60;;;;;;20569;6754;307278;-76
2023/01/23 09:53:33;;;;;;;21.87;19.17;;;3.80;53.50;;;;;;20914;6722;117494;-74
2023/01/23 09:56:32;;;;;;;40.00;35.77;;;3.80;53.30;;;;;;20639;6736;276819;-75
2023/01/23 09:59:34;;;;;;;20.80;18.80;;;3.90;53.30;;;;;;20625;6767;275341;-75
2023/01/23 10:02:18;;;;;;;18.57;16.87;;;4.10;52.90;;;;;;20729;6711;275594;-75
2023/01/23 10:04:52;;;;;;;18.90;17.10;;;4.40;52.10;;;;;;20672;6725;275519;-76
2023/01/23 10:07:58;;;;;;;15.87;13.93;;;4.60;51.50;;;;;;20789;6725;122251;-76
2023/01/23 10:11:01;;;;;;;14.53;11.60;;;4.20;52.40;;;;;;20914;6726;117199;-76
2023/01/23 10:13:47;;;;;;;16.17;13.40;;;4.20;52.40;;;;;;20928;6726;117079;-76
2023/01/23 10:16:31;;;;;;;33.40;27.43;;;3.90;52.90;;;;;;20833;6736;117282;-76
2023/01/23 10:19:13;;;;;;;16.35;14.75;;;3.70;53.10;;;;;;20629;6736;310138;-76
2023/01/23 10:22:09;;;;;;;14.60;12.33;;;3.80;52.30;;;;;;20802;6762;117683;-75
2023/01/23 10:24:48;;;;;;;13.40;11.17;;;3.70;52.30;;;;;;20734;6756;121979;-75
2023/01/23 10:27:33;;;;;;;30.63;25.47;;;3.60;52.60;;;;;;20791;6724;118146;-76
2023/01/23 10:30:19;;;;;;;13.43;12.03;;;3.40;53.00;;;;;;20920;6726;117575;-75
2023/01/23 10:32:54;;;;;;;10.50;9.50;;;3.30;53.30;;;;;;20864;6726;117630;-76
2023/01/23 10:35:34;;;;;;;14.83;12.20;;;3.10;53.20;;;;;;20846;6739;116956;-75
2023/01/23 10:38:17;;;;;;;10.00;9.00;;;3.00;53.50;;;;;;20710;6738;117650;-74
2023/01/23 10:41:12;;;;;;;16.43;15.03;;;3.00;53.40;;;;;;20709;6740;309158;-74
2023/01/23 10:43:50;;;;;;;15.93;14.43;;;3.20;52.80;;;;;;20895;6727;117186;-75
2023/01/23 10:46:32;;;;;;;15.63;14.13;;;3.20;52.50;;;;;;20599;6742;299185;-75
2023/01/23 10:49:07;;;;;;;13.93;12.73;;;3.40;52.20;;;;;;20657;6744;305712;-77
2023/01/23 10:51:44;;;;;;;13.47;12.27;;;3.80;51.40;;;;;;20659;6745;279171;-74
2023/01/23 10:54:24;;;;;;;11.33;10.23;;;4.10;50.50;;;;;;20879;6733;117138;-76
2023/01/23 10:57:03;;;;;;;11.73;10.53;;;4.00;50.50;;;;;;20790;6725;120801;-71
2023/01/23 11:00:00;;;;;;;10.43;9.33;;;3.80;50.90;;;;;;20881;6781;122333;-75
2023/01/23 11:02:36;;;;;;;13.62;12.35;;;3.60;51.50;;;;;;20671;6725;308323;-75
2023/01/23 11:05:35;;;;;;;12.37;11.37;;;3.70;51.20;;;;;;20654;6731;281092;-75
2023/01/23 11:08:30;;;;;;;11.60;10.30;;;4.00;50.40;;;;;;20743;6731;118325;-73
2023/01/23 11:11:15;;;;;;;15.88;14.50;;;3.90;50.20;;;;;;20678;6726;335658;-74
2023/01/23 11:14:01;;;;;;;31.20;22.70;;;4.00;50.20;;;;;;20891;6727;117689;-75
2023/01/23 11:16:37;;;;;;;14.93;13.63;;;4.00;50.50;;;;;;20637;6727;309014;-74
2023/01/23 11:19:16;;;;;;;12.10;10.50;;;4.10;50.40;;;;;;20919;6718;117479;-76
2023/01/23 11:21:52;;;;;;;19.53;17.93;;;4.10;50.20;;;;;;20706;6718;307456;-73
2023/01/23 11:24:27;;;;;;;14.03;12.83;;;4.10;50.20;;;;;;20711;6718;306576;-74
2023/01/23 11:27:16;;;;;;;14.57;13.17;;;4.40;49.80;;;;;;20617;6718;309202;-74
2023/01/23 11:30:11;;;;;;;14.47;13.20;;;4.60;49.10;;;;;;20704;6718;306568;-74
2023/01/23 11:32:58;;;;;;;12.40;11.10;;;4.50;49.90;;;;;;20756;6774;121410;-75
2023/01/23 11:35:34;;;;;;;17.40;15.90;;;4.50;49.20;;;;;;20935;6718;117971;-74
2023/01/23 11:38:10;;;;;;;14.85;13.45;;;4.20;49.90;;;;;;20567;6718;278126;-73
2023/01/23 11:40:46;;;;;;;15.63;14.27;;;4.20;50.20;;;;;;20686;6718;306156;-74
2023/01/23 11:43:21;;;;;;;11.67;10.57;;;4.40;49.60;;;;;;20913;6718;117473;-74
2023/01/23 11:46:20;;;;;;;12.40;10.93;;;4.40;49.80;;;;;;20768;6759;123116;-73
2023/01/23 11:49:08;;;;;;;12.23;10.87;;;4.10;50.30;;;;;;20770;6759;147476;-74
2023/01/23 11:52:10;;;;;;;14.30;12.13;;;3.80;50.90;;;;;;20709;6781;117351;-74
2023/01/23 11:54:55;;;;;;;28.47;22.07;;;3.70;51.50;;;;;;20520;6772;307810;-74
2023/01/23 11:57:48;;;;;;;13.97;12.47;;;3.90;51.40;;;;;;20695;6766;117929;-74
2023/01/23 12:00:27;;;;;;;12.63;11.30;;;3.90;51.30;;;;;;20796;6758;123153;-73
2023/01/23 12:03:23;;;;;;;13.27;11.80;;;3.80;51.70;;;;;;20809;6751;119716;-73
2023/01/23 12:06:07;;;;;;;13.20;11.57;;;3.70;52.00;;;;;;20827;6745;117652;-73
2023/01/23 12:09:12;;;;;;;13.03;11.40;;;3.60;52.40;;;;;;20914;6718;117808;-73
2023/01/23 12:11:55;;;;;;;15.88;14.38;;;3.60;52.80;;;;;;20611;6744;337191;-73
2023/01/23 12:14:34;;;;;;;14.03;12.07;;;3.90;52.30;;;;;;20929;6724;117651;-73
2023/01/23 12:17:36;;;;;;;12.87;11.33;;;4.10;52.10;;;;;;20792;6729;117809;-73
2023/01/23 12:20:18;;;;;;;16.40;14.90;;;4.00;52.20;;;;;;20733;6711;304820;-73
2023/01/23 12:23:15;;;;;;;16.87;15.27;;;4.70;51.00;;;;;;20707;6711;275740;-75
2023/01/23 12:26:03;;;;;;;17.03;15.43;;;4.70;51.00;;;;;;20747;6711;284461;-72
2023/01/23 12:29:06;;;;;;;16.50;14.93;;;5.40;49.40;;;;;;20709;6723;282667;-72
2023/01/23 12:31:48;;;;;;;16.30;14.85;;;5.40;49.40;;;;;;20698;6723;293419;-77
2023/01/23 12:34:57;;;;;;;13.60;12.30;;;5.60;48.80;;;;;;20911;6721;117204;-74
2023/01/23 12:37:42;;;;;;;13.87;12.40;;;5.40;49.00;;;;;;20830;6723;117312;-75
2023/01/23 12:40:35;;;;;;;16.70;13.77;;;4.80;51.20;;;;;;20911;6719;117494;-76
2023/01/23 12:43:20;;;;;;;16.15;14.55;;;4.80;50.50;;;;;;20657;6731;306809;-76
2023/01/23 12:45:53;;;;;;;16.37;14.87;;;5.00;50.20;;;;;;20657;6731;282972;-75
2023/01/23 12:48:28;;;;;;;15.93;14.33;;;5.30;49.60;;;;;;20376;6817;312982;-78
2023/01/23 12:51:05;;;;;;;15.87;14.47;;;5.80;49.00;;;;;;20589;6752;282877;-72